Nearby METAR Reports

 

KIAG - Niagara Falls, New York, USA
Distance from station: W 12mi, 20km
Updated: 07/20/2019 8:53am
Clear
Clear
 Wind from SW
Wind: SW 17 mph , 28 km/h, Gust: 24 mph , 39 km/h
Temperature: 79°F , 26°C
Dew Point: 73°F , 23°C
Humidity: 84%
Barometer: 1010.8 hPa
Clouds: Clear
Visibility: 10 miles , 16 km
2019/07/20 12:53 KIAG 201253Z 23015G21KT 10SM CLR 26/23 A2985 RMK AO2 SLP100 T02610228
KBUF - Buffalo/Cheektow, New York, USA
Distance from station: S 13mi, 21km
Updated: 07/20/2019 8:54am
Overcast
Overcast
 Wind from SW
Wind: SW 15 mph , 24 km/h, Gust: 26 mph , 43 km/h
Temperature: 79°F , 26°C
Dew Point: 72°F , 22°C
Humidity: 79%
Barometer: 1011.5 hPa
Clouds: Overcast
Visibility: 10 miles , 16 km
Cloud details: Few Clouds 3100 ft
Partly cloudy 3800 ft
Mostly cloudy 13000 ft
Overcast 18000 ft
2019/07/20 12:54 KBUF 201254Z 23013G23KT 10SM FEW031 SCT038 BKN130 OVC180 26/22 A2987 RMK AO2 SLP109 T02610222
 
KROC - Rochester, New York, USA
Distance from station: E 51mi, 82km
Updated: 07/20/2019 8:54am
Mostly cloudy
Mostly cloudy
 Wind from SW
Wind: SW 8 mph , 13 km/h
Temperature: 79°F , 26°C
Dew Point: 72°F , 22°C
Humidity: 79%
Barometer: 1010.8 hPa
Clouds: Mostly cloudy
Visibility: 10 miles , 16 km
Cloud details: Few Clouds 3600 ft
Mostly cloudy 22000 ft
2019/07/20 12:54 KROC 201254Z 22007KT 10SM FEW036 BKN220 26/22 A2985 RMK AO2 SLP108 T02610222
CYSN - St. Catharines A, Ontario, Canada
Distance from station: WNW 25mi, 40km
Updated: 07/20/2019 9:00am
Overcast
Overcast
 Wind from SW
Wind: SW 20 mph , 31 km/h
Temperature: 81°F , 27°C
Heat Index: 88°F , 31°C
Dew Point: 77°F , 25°C
Humidity: 89%
Barometer: 1009.5 hPa
Clouds: Overcast
Visibility: 12 miles , 19 km
Cloud details: Few Clouds 2500 ft
Partly cloudy 14000 ft
Overcast 22000 ft
2019/07/20 13:00 CYSN 201300Z 22017KT 12SM FEW025 SCT140 OVC220 27/25 A2981 RMK SF1ACC2CI5 LWR CLD S-W SLP095 DENSITY ALT 1900FT
 
KOLE - Olean, New York, USA
Distance from station: SSE 63mi, 102km
Updated: 07/20/2019 9:15am
Overcast
Overcast
 Wind from SW
Wind: SW 8 mph , 13 km/h
Temperature: 70°F , 21°C
Dew Point: 70°F , 21°C
Humidity: 100%
Barometer: 1015.9 hPa
Clouds: Overcast
Visibility: 10 miles , 16 km
Cloud details: Mostly cloudy 1300 ft
Overcast 1900 ft
2019/07/20 13:15 KOLE 201315Z AUTO 22007KT 10SM BKN013 OVC019 21/21 A3000 RMK AO2
KJHW - Jamestown, New York, USA
Distance from station: SSW 74mi, 119km
Updated: 07/20/2019 9:18am
Mostly cloudy
Mostly cloudy
 Wind from SSW
Wind: SSW 13 mph , 20 km/h
Temperature: 72°F , 22°C
Dew Point: 70°F , 21°C
Humidity: 94%
Barometer: 1014.9 hPa
Clouds: Mostly cloudy
Visibility: 10 miles , 16 km
Cloud details: Mostly cloudy 2300 ft
2019/07/20 13:18 KJHW 201318Z AUTO 20011KT 10SM BKN023 22/21 A2997 RMK AO2
 
CWWZ - Port Weller (mar, Ontario, Canada
Distance from station: WNW 28mi, 45km
Updated: 07/20/2019 9:00am

 Wind from SSW
Wind: SSW 12 mph , 19 km/h, Gust: 21 mph , 33 km/h
Temperature: 79°F , 26°C
Dew Point: 73°F , 23°C
Humidity: 84%
2019/07/20 13:00 CWWZ 201300Z AUTO 21010G18KT 26/23 RMK AO1 PK WND 22018/1258 SLP093 T02640234 53001
CWPC - Port Colborne(Au, Ontario, Canada
Distance from station: WSW 33mi, 53km
Updated: 07/20/2019 9:00am

 Wind from WSW
Wind: WSW 25 mph , 41 km/h
Temperature: 75°F , 24°C
Dew Point: 72°F , 22°C
Humidity: 89%
2019/07/20 13:00 CWPC 201300Z AUTO 25022KT 24/22 RMK AO1 PK WND 25029/1233 SLP106 T02410216 58001
 
CXVN - Vineland (au8), Ontario, Canada
Distance from station: W 36mi, 58km
Updated: 07/20/2019 9:00am

 Wind from SSW
Wind: SSW 16 mph , 26 km/h, Gust: 24 mph , 39 km/h
Temperature: 81°F , 27°C
Heat Index: 89°F , 32°C
Dew Point: 79°F , 26°C
Humidity: 94%
2019/07/20 13:00 CXVN 201300Z AUTO 21014G21KT 27/26 RMK AO1 PK WND 21021/1251 SLP085 T02670258 55000
CYTZ - Toronto Il Vor, Ontario, Canada
Distance from station: NW 50mi, 81km
Updated: 07/20/2019 9:00am
Clear
Clear
 Wind from SW
Wind: SW 10 mph , 17 km/h
Temperature: 75°F , 24°C
Dew Point: 72°F , 22°C
Humidity: 89%
Barometer: 1008.8 hPa
Clouds: Clear
Visibility: 9 miles , 14 km
2019/07/20 13:00 CYTZ 201300Z AUTO 23009KT 9SM CLR 24/22 A2979 RMK SLP089 DENSITY ALT 1400FT
 
CXTO - Toronto City, Ontario, Canada
Distance from station: NW 52mi, 84km
Updated: 07/20/2019 9:00am

 
Temperature: 79°F , 26°C
Dew Point: 72°F , 22°C
Humidity: 79%
2019/07/20 13:00 CXTO 201300Z AUTO 26/22 RMK AO1 SLP092 T02600217 53001
KDKK - Dunkirk, New York, USA
Distance from station: SW 52mi, 84km
Updated: 07/20/2019 9:28am
Mostly cloudy
Mostly cloudy
 Wind from S
Wind: S 12 mph , 19 km/h
Temperature: 81°F , 27°C
Heat Index: 86°F , 30°C
Dew Point: 73°F , 23°C
Humidity: 79%
Barometer: 1011.9 hPa
Clouds: Mostly cloudy
Visibility: 10 miles , 16 km
Cloud details: Mostly cloudy 2800 ft
2019/07/20 13:28 KDKK 201328Z AUTO 18010KT 10SM BKN028 27/23 A2988 RMK AO2 T02720228 $
 
CYOO - Oshawa, Ontario, Canada
Distance from station: N 56mi, 90km
Updated: 07/20/2019 9:00am
Clear
Clear
 Wind from S
Wind: S 6 mph , 9 km/h
Temperature: 79°F , 26°C
Dew Point: 75°F , 24°C
Humidity: 89%
Barometer: 1008.8 hPa
Clouds: Clear
Visibility: 9 miles , 14 km
2019/07/20 13:00 CYOO 201300Z AUTO 17005KT 130V210 9SM CLR 26/24 A2979 RMK SLP087 DENSITY ALT 1900FT
CWWB - Burlington Piers, Ontario, Canada
Distance from station: WNW 56mi, 91km
Updated: 07/20/2019 9:00am

 Wind from S
Wind: S 12 mph , 19 km/h
Temperature: 81°F , 27°C
Heat Index: 86°F , 30°C
Dew Point: 73°F , 23°C
Humidity: 79%
2019/07/20 13:00 CWWB 201300Z AUTO 19010KT 27/23 RMK AO1 PK WND 18017/1226 SLP088 T02680227 56006
 
CYYZ - Toronto/Pearson, Ontario, Canada
Distance from station: NW 60mi, 96km
Updated: 07/20/2019 9:00am
Mostly cloudy
Mostly cloudy
 Wind from S
Wind: S 18 mph , 30 km/h
Temperature: 81°F , 27°C
Heat Index: 87°F , 31°C
Dew Point: 75°F , 24°C
Humidity: 84%
Barometer: 1009.1 hPa
Clouds: Mostly cloudy
Visibility: 15 miles , 24 km
Cloud details: Few Clouds 1500 ft
Partly cloudy 12000 ft
Mostly cloudy 17000 ft
2019/07/20 13:00 CYYZ 201300Z 19016KT 15SM FEW015 SCT120 BKN170 27/24 A2980 RMK CU1AC3AC3 SLP089 DENSITY ALT 2200FT
CYKZ - Toronto Buttonvi, Ontario, Canada
Distance from station: NW 62mi, 99km
Updated: 01/03/2019 4:00am
NOT Current
Partly cloudy
Partly cloudy
 Wind from WSW
Wind: WSW 5 mph , 7 km/h
Temperature: 27°F , -3°C
Wind Chill: 21°F , -6°C
Dew Point: 23°F , -5°C
Humidity: 86%
Barometer: 1010.8 hPa
Clouds: Partly cloudy
Visibility: 15 miles , 24 km
Cloud details: Partly cloudy 4000 ft
2019/01/03 09:00 CYKZ 030900Z 25004KT 15SM SCT040 M03/M05 A2985 RMK SC3 LAST STFD OBS FAREWELL SLP118
 
CXHM - Hamilton Rbg Cs, Ontario, Canada
Distance from station: W 62mi, 100km
Updated: 07/20/2019 9:00am

 Wind from WSW
Wind: WSW 3 mph , 6 km/h
2019/07/20 13:00 CXHM 201300Z AUTO 24003KT RMK AO1 55003
KDSV - Dansville, New York, USA
Distance from station: SE 62mi, 100km
Updated: 07/20/2019 8:54am
Clear
Clear
 Wind from SE
Wind: SE 10 mph , 17 km/h
Temperature: 81°F , 27°C
Heat Index: 85°F , 29°C
Dew Point: 72°F , 22°C
Humidity: 74%
Barometer: 1012.2 hPa
Clouds: Clear
Visibility: 10 miles , 16 km
2019/07/20 12:54 KDSV 201254Z AUTO 13009KT 10SM CLR 27/22 A2989 RMK AO2 SLP125 T02670222
 
CYHM - Hamilton Airport, Ontario, Canada
Distance from station: W 63mi, 101km
Updated: 07/20/2019 9:24am
Overcast
Overcast
 Wind from SW
Wind: SW 15 mph , 24 km/h
Temperature: 77°F , 25°C
Dew Point: 75°F , 24°C
Humidity: 94%
Barometer: 1010.5 hPa
Clouds: Overcast
Visibility: 12 miles , 19 km
Cloud details: Mostly cloudy 800 ft
Overcast 19000 ft
2019/07/20 13:24 CYHM 201324Z 22013KT 12SM BKN008 OVC190 25/24 A2984 RMK SC6AC2 SLP100 DENSITY ALT 2300FT
CWNC - Cobourg (mars), Ontario, Canada
Distance from station: NNE 63mi, 102km
Updated: 07/20/2019 9:00am

 Wind from W
Wind: W 3 mph , 6 km/h
Temperature: 72°F , 22°C
Dew Point: 72°F , 22°C
Humidity: 100%
2019/07/20 13:00 CWNC 201300Z AUTO 28003KT 22/22 RMK AO1 SLP084 T02190215 58001